sensor_id;sensor_type;location;lat;lon;timestamp;temperature;humidity
33988;DHT22;37428;53.580;-1.666;2022-07-10T00:02:00;16.90;63.10
33988;DHT22;37428;53.580;-1.666;2022-07-10T00:05:03;16.80;63.70
33988;DHT22;37428;53.580;-1.666;2022-07-10T00:08:06;16.80;63.70
33988;DHT22;37428;53.580;-1.666;2022-07-10T00:11:09;16.80;63.70
33988;DHT22;37428;53.580;-1.666;2022-07-10T00:14:13;16.80;63.70
33988;DHT22;37428;53.580;-1.666;2022-07-10T00:17:28;16.80;63.60
33988;DHT22;37428;53.580;-1.666;2022-07-10T00:20:30;16.80;63.30
33988;DHT22;37428;53.580;-1.666;2022-07-10T00:23:32;16.90;63.40
33988;DHT22;37428;53.580;-1.666;2022-07-10T00:26:38;16.80;63.30
33988;DHT22;37428;53.580;-1.666;2022-07-10T00:29:46;16.70;63.80
33988;DHT22;37428;53.580;-1.666;2022-07-10T00:32:51;16.50;64.80
33988;DHT22;37428;53.580;-1.666;2022-07-10T00:35:56;16.40;65.40
33988;DHT22;37428;53.580;-1.666;2022-07-10T00:39:04;16.40;65.60
33988;DHT22;37428;53.580;-1.666;2022-07-10T00:42:09;16.60;64.90
33988;DHT22;37428;53.580;-1.666;2022-07-10T00:45:33;16.70;64.80
33988;DHT22;37428;53.580;-1.666;2022-07-10T00:50:10;16.80;64.80
33988;DHT22;37428;53.580;-1.666;2022-07-10T00:52:06;16.50;65.20
33988;DHT22;37428;53.580;-1.666;2022-07-10T00:55:28;16.40;65.80
33988;DHT22;37428;53.580;-1.666;2022-07-10T00:58:34;16.40;65.70
33988;DHT22;37428;53.580;-1.666;2022-07-10T01:01:42;16.40;65.80
33988;DHT22;37428;53.580;-1.666;2022-07-10T01:04:49;16.50;65.80
33988;DHT22;37428;53.580;-1.666;2022-07-10T01:07:52;16.50;65.70
33988;DHT22;37428;53.580;-1.666;2022-07-10T01:10:54;16.60;65.20
33988;DHT22;37428;53.580;-1.666;2022-07-10T01:13:58;16.50;65.10
33988;DHT22;37428;53.580;-1.666;2022-07-10T01:17:00;16.50;65.00
33988;DHT22;37428;53.580;-1.666;2022-07-10T01:20:11;16.40;65.40
33988;DHT22;37428;53.580;-1.666;2022-07-10T01:23:16;16.30;65.70
33988;DHT22;37428;53.580;-1.666;2022-07-10T01:26:22;16.10;66.30
33988;DHT22;37428;53.580;-1.666;2022-07-10T01:29:40;15.80;67.60
33988;DHT22;37428;53.580;-1.666;2022-07-10T01:32:42;15.50;69.10
33988;DHT22;37428;53.580;-1.666;2022-07-10T01:35:51;15.40;69.30
33988;DHT22;37428;53.580;-1.666;2022-07-10T01:39:00;15.40;69.30
33988;DHT22;37428;53.580;-1.666;2022-07-10T01:42:10;15.40;69.70
33988;DHT22;37428;53.580;-1.666;2022-07-10T01:45:15;15.50;69.80
33988;DHT22;37428;53.580;-1.666;2022-07-10T01:48:23;15.60;69.40
33988;DHT22;37428;53.580;-1.666;2022-07-10T01:51:25;15.70;68.90
33988;DHT22;37428;53.580;-1.666;2022-07-10T01:58:11;15.90;68.20
33988;DHT22;37428;53.580;-1.666;2022-07-10T02:01:23;15.90;67.70
33988;DHT22;37428;53.580;-1.666;2022-07-10T02:04:36;15.90;67.30
33988;DHT22;37428;53.580;-1.666;2022-07-10T02:07:47;15.90;67.40
33988;DHT22;37428;53.580;-1.666;2022-07-10T02:10:52;15.80;67.40
33988;DHT22;37428;53.580;-1.666;2022-07-10T02:14:01;15.70;67.80
33988;DHT22;37428;53.580;-1.666;2022-07-10T02:17:09;15.60;68.00
33988;DHT22;37428;53.580;-1.666;2022-07-10T02:20:15;15.50;68.20
33988;DHT22;37428;53.580;-1.666;2022-07-10T02:23:19;15.50;68.20
33988;DHT22;37428;53.580;-1.666;2022-07-10T02:26:54;15.60;68.10
33988;DHT22;37428;53.580;-1.666;2022-07-10T02:30:42;15.60;67.60
33988;DHT22;37428;53.580;-1.666;2022-07-10T02:33:27;15.50;67.80
33988;DHT22;37428;53.580;-1.666;2022-07-10T02:36:43;15.60;67.80
33988;DHT22;37428;53.580;-1.666;2022-07-10T02:40:15;15.70;67.30
33988;DHT22;37428;53.580;-1.666;2022-07-10T02:43:31;15.70;67.10
33988;DHT22;37428;53.580;-1.666;2022-07-10T02:46:44;15.60;67.70
33988;DHT22;37428;53.580;-1.666;2022-07-10T02:49:48;15.50;68.00
33988;DHT22;37428;53.580;-1.666;2022-07-10T02:53:10;15.20;68.70
33988;DHT22;37428;53.580;-1.666;2022-07-10T02:56:22;15.10;69.70
33988;DHT22;37428;53.580;-1.666;2022-07-10T02:59:25;15.10;70.00
33988;DHT22;37428;53.580;-1.666;2022-07-10T03:02:30;15.00;70.30
33988;DHT22;37428;53.580;-1.666;2022-07-10T03:05:39;14.90;70.70
33988;DHT22;37428;53.580;-1.666;2022-07-10T03:08:41;14.90;70.90
33988;DHT22;37428;53.580;-1.666;2022-07-10T03:11:43;15.00;70.80
33988;DHT22;37428;53.580;-1.666;2022-07-10T03:14:52;15.10;70.50
33988;DHT22;37428;53.580;-1.666;2022-07-10T03:17:56;15.10;70.50
33988;DHT22;37428;53.580;-1.666;2022-07-10T03:21:05;15.10;70.50
33988;DHT22;37428;53.580;-1.666;2022-07-10T03:24:25;15.10;70.50
33988;DHT22;37428;53.580;-1.666;2022-07-10T03:27:44;15.20;70.20
33988;DHT22;37428;53.580;-1.666;2022-07-10T03:31:22;15.30;69.90
33988;DHT22;37428;53.580;-1.666;2022-07-10T03:36:05;15.30;69.70
33988;DHT22;37428;53.580;-1.666;2022-07-10T03:37:54;15.20;69.90
33988;DHT22;37428;53.580;-1.666;2022-07-10T03:41:16;15.00;70.70
33988;DHT22;37428;53.580;-1.666;2022-07-10T03:44:34;15.00;71.30
33988;DHT22;37428;53.580;-1.666;2022-07-10T03:47:39;15.00;71.50
33988;DHT22;37428;53.580;-1.666;2022-07-10T03:50:49;15.10;71.40
33988;DHT22;37428;53.580;-1.666;2022-07-10T03:53:52;15.10;71.40
33988;DHT22;37428;53.580;-1.666;2022-07-10T03:56:54;15.20;71.10
33988;DHT22;37428;53.580;-1.666;2022-07-10T04:00:14;15.20;71.20
33988;DHT22;37428;53.580;-1.666;2022-07-10T04:03:17;15.30;70.80
33988;DHT22;37428;53.580;-1.666;2022-07-10T04:06:30;15.40;70.30
33988;DHT22;37428;53.580;-1.666;2022-07-10T04:09:34;15.50;70.00
33988;DHT22;37428;53.580;-1.666;2022-07-10T04:12:39;15.50;69.60
33988;DHT22;37428;53.580;-1.666;2022-07-10T04:15:41;15.40;69.50
33988;DHT22;37428;53.580;-1.666;2022-07-10T04:18:45;15.40;69.50
33988;DHT22;37428;53.580;-1.666;2022-07-10T04:22:02;15.40;69.60
33988;DHT22;37428;53.580;-1.666;2022-07-10T04:25:29;15.30;69.70
33988;DHT22;37428;53.580;-1.666;2022-07-10T04:28:37;15.10;70.50
33988;DHT22;37428;53.580;-1.666;2022-07-10T04:31:49;15.00;71.10
33988;DHT22;37428;53.580;-1.666;2022-07-10T04:35:14;14.90;71.60
33988;DHT22;37428;53.580;-1.666;2022-07-10T04:38:22;14.70;72.30
33988;DHT22;37428;53.580;-1.666;2022-07-10T04:41:40;14.60;73.00
33988;DHT22;37428;53.580;-1.666;2022-07-10T04:44:53;14.60;73.30
33988;DHT22;37428;53.580;-1.666;2022-07-10T04:47:55;14.60;73.60
33988;DHT22;37428;53.580;-1.666;2022-07-10T04:50:58;14.60;73.70
33988;DHT22;37428;53.580;-1.666;2022-07-10T04:54:03;14.60;74.00
33988;DHT22;37428;53.580;-1.666;2022-07-10T04:57:11;14.60;73.90
33988;DHT22;37428;53.580;-1.666;2022-07-10T05:00:15;14.70;73.70
33988;DHT22;37428;53.580;-1.666;2022-07-10T05:03:17;14.70;73.80
33988;DHT22;37428;53.580;-1.666;2022-07-10T05:06:35;14.70;73.80
33988;DHT22;37428;53.580;-1.666;2022-07-10T05:09:57;14.80;73.60
33988;DHT22;37428;53.580;-1.666;2022-07-10T05:13:04;14.90;73.40
33988;DHT22;37428;53.580;-1.666;2022-07-10T05:16:07;15.00;73.00
33988;DHT22;37428;53.580;-1.666;2022-07-10T05:19:29;15.10;73.10
33988;DHT22;37428;53.580;-1.666;2022-07-10T05:22:32;15.20;72.90
33988;DHT22;37428;53.580;-1.666;2022-07-10T05:25:40;15.30;72.70
33988;DHT22;37428;53.580;-1.666;2022-07-10T05:28:42;15.30;72.50
33988;DHT22;37428;53.580;-1.666;2022-07-10T05:31:48;15.40;72.40
33988;DHT22;37428;53.580;-1.666;2022-07-10T05:34:50;15.50;72.00
33988;DHT22;37428;53.580;-1.666;2022-07-10T05:38:29;15.60;72.20
33988;DHT22;37428;53.580;-1.666;2022-07-10T05:41:24;15.70;71.70
33988;DHT22;37428;53.580;-1.666;2022-07-10T05:44:42;15.80;71.60
33988;DHT22;37428;53.580;-1.666;2022-07-10T05:47:46;16.00;70.90
33988;DHT22;37428;53.580;-1.666;2022-07-10T05:51:03;16.10;70.50
33988;DHT22;37428;53.580;-1.666;2022-07-10T05:54:14;16.30;70.50
33988;DHT22;37428;53.580;-1.666;2022-07-10T05:57:20;16.40;70.10
33988;DHT22;37428;53.580;-1.666;2022-07-10T06:00:31;16.60;69.50
33988;DHT22;37428;53.580;-1.666;2022-07-10T06:03:37;16.80;69.20
33988;DHT22;37428;53.580;-1.666;2022-07-10T06:06:40;17.00;68.60
33988;DHT22;37428;53.580;-1.666;2022-07-10T06:09:42;17.20;68.00
33988;DHT22;37428;53.580;-1.666;2022-07-10T06:12:46;17.50;67.80
33988;DHT22;37428;53.580;-1.666;2022-07-10T06:15:48;17.60;67.50
33988;DHT22;37428;53.580;-1.666;2022-07-10T06:18:50;17.70;66.60
33988;DHT22;37428;53.580;-1.666;2022-07-10T06:21:53;17.80;66.60
33988;DHT22;37428;53.580;-1.666;2022-07-10T06:25:13;17.90;66.10
33988;DHT22;37428;53.580;-1.666;2022-07-10T06:28:19;18.00;66.20
33988;DHT22;37428;53.580;-1.666;2022-07-10T06:31:21;18.10;65.60
33988;DHT22;37428;53.580;-1.666;2022-07-10T06:34:24;18.20;65.50
33988;DHT22;37428;53.580;-1.666;2022-07-10T06:37:34;18.40;64.90
33988;DHT22;37428;53.580;-1.666;2022-07-10T06:40:37;18.50;65.10
33988;DHT22;37428;53.580;-1.666;2022-07-10T06:43:46;18.50;64.60
33988;DHT22;37428;53.580;-1.666;2022-07-10T06:46:48;18.60;63.50
33988;DHT22;37428;53.580;-1.666;2022-07-10T06:50:08;18.70;61.70
33988;DHT22;37428;53.580;-1.666;2022-07-10T06:53:16;18.90;61.90
33988;DHT22;37428;53.580;-1.666;2022-07-10T06:56:19;19.00;60.90
33988;DHT22;37428;53.580;-1.666;2022-07-10T06:59:24;19.20;60.10
33988;DHT22;37428;53.580;-1.666;2022-07-10T07:02:29;19.30;60.70
33988;DHT22;37428;53.580;-1.666;2022-07-10T07:05:31;19.40;59.20
33988;DHT22;37428;53.580;-1.666;2022-07-10T07:08:35;19.60;59.00
33988;DHT22;37428;53.580;-1.666;2022-07-10T07:11:39;19.70;58.80
33988;DHT22;37428;53.580;-1.666;2022-07-10T07:14:44;19.80;58.40
33988;DHT22;37428;53.580;-1.666;2022-07-10T07:17:49;19.90;57.80
33988;DHT22;37428;53.580;-1.666;2022-07-10T07:21:12;20.00;56.10
33988;DHT22;37428;53.580;-1.666;2022-07-10T07:24:52;20.20;56.40
33988;DHT22;37428;53.580;-1.666;2022-07-10T07:27:54;20.30;55.70
33988;DHT22;37428;53.580;-1.666;2022-07-10T07:30:59;20.40;54.90
33988;DHT22;37428;53.580;-1.666;2022-07-10T07:34:01;20.60;56.50
33988;DHT22;37428;53.580;-1.666;2022-07-10T07:37:04;20.80;56.00
33988;DHT22;37428;53.580;-1.666;2022-07-10T07:40:07;21.00;55.20
33988;DHT22;37428;53.580;-1.666;2022-07-10T07:43:10;21.20;54.50
33988;DHT22;37428;53.580;-1.666;2022-07-10T07:46:16;21.30;54.50
33988;DHT22;37428;53.580;-1.666;2022-07-10T07:49:20;21.50;53.90
33988;DHT22;37428;53.580;-1.666;2022-07-10T07:52:22;21.60;53.30
33988;DHT22;37428;53.580;-1.666;2022-07-10T07:55:26;21.80;53.40
33988;DHT22;37428;53.580;-1.666;2022-07-10T07:58:28;21.90;53.10
33988;DHT22;37428;53.580;-1.666;2022-07-10T08:01:33;22.00;52.40
33988;DHT22;37428;53.580;-1.666;2022-07-10T08:04:37;22.10;51.40
33988;DHT22;37428;53.580;-1.666;2022-07-10T08:07:42;22.10;52.10
33988;DHT22;37428;53.580;-1.666;2022-07-10T08:10:45;22.30;51.10
33988;DHT22;37428;53.580;-1.666;2022-07-10T08:13:47;22.50;51.90
33988;DHT22;37428;53.580;-1.666;2022-07-10T08:16:50;22.70;51.30
33988;DHT22;37428;53.580;-1.666;2022-07-10T08:19:54;22.80;50.50
33988;DHT22;37428;53.580;-1.666;2022-07-10T08:22:58;23.00;49.60
33988;DHT22;37428;53.580;-1.666;2022-07-10T08:26:01;23.20;48.90
33988;DHT22;37428;53.580;-1.666;2022-07-10T08:29:03;23.40;49.30
33988;DHT22;37428;53.580;-1.666;2022-07-10T08:32:07;23.60;49.20
33988;DHT22;37428;53.580;-1.666;2022-07-10T08:35:10;23.70;49.00
33988;DHT22;37428;53.580;-1.666;2022-07-10T08:38:14;23.70;48.70
33988;DHT22;37428;53.580;-1.666;2022-07-10T08:41:18;23.80;48.30
33988;DHT22;37428;53.580;-1.666;2022-07-10T08:44:23;24.00;47.70
33988;DHT22;37428;53.580;-1.666;2022-07-10T08:47:27;24.20;47.80
33988;DHT22;37428;53.580;-1.666;2022-07-10T08:50:33;24.50;47.40
33988;DHT22;37428;53.580;-1.666;2022-07-10T08:53:39;24.70;47.50
33988;DHT22;37428;53.580;-1.666;2022-07-10T08:56:41;24.70;47.10
33988;DHT22;37428;53.580;-1.666;2022-07-10T08:59:43;24.90;45.90
33988;DHT22;37428;53.580;-1.666;2022-07-10T09:02:47;25.00;47.10
33988;DHT22;37428;53.580;-1.666;2022-07-10T09:05:51;25.20;46.50
33988;DHT22;37428;53.580;-1.666;2022-07-10T09:09:02;24.90;46.90
33988;DHT22;37428;53.580;-1.666;2022-07-10T09:12:06;25.10;45.80
33988;DHT22;37428;53.580;-1.666;2022-07-10T09:15:18;25.20;46.40
33988;DHT22;37428;53.580;-1.666;2022-07-10T09:18:23;25.50;45.30
33988;DHT22;37428;53.580;-1.666;2022-07-10T09:21:32;25.70;45.10
33988;DHT22;37428;53.580;-1.666;2022-07-10T09:24:36;25.70;45.10
33988;DHT22;37428;53.580;-1.666;2022-07-10T09:27:51;25.80;44.70
33988;DHT22;37428;53.580;-1.666;2022-07-10T09:30:54;25.90;42.90
33988;DHT22;37428;53.580;-1.666;2022-07-10T09:33:59;26.10;42.20
33988;DHT22;37428;53.580;-1.666;2022-07-10T09:37:20;26.20;42.90
33988;DHT22;37428;53.580;-1.666;2022-07-10T09:40:27;26.40;41.90
33988;DHT22;37428;53.580;-1.666;2022-07-10T09:43:43;26.60;42.40
33988;DHT22;37428;53.580;-1.666;2022-07-10T09:46:45;26.70;42.10
33988;DHT22;37428;53.580;-1.666;2022-07-10T09:49:50;26.70;40.50
33988;DHT22;37428;53.580;-1.666;2022-07-10T09:52:53;26.90;40.70
33988;DHT22;37428;53.580;-1.666;2022-07-10T09:55:56;26.90;40.40
33988;DHT22;37428;53.580;-1.666;2022-07-10T09:59:00;27.10;41.90
33988;DHT22;37428;53.580;-1.666;2022-07-10T10:02:02;27.30;40.90
33988;DHT22;37428;53.580;-1.666;2022-07-10T10:05:07;27.30;41.10
33988;DHT22;37428;53.580;-1.666;2022-07-10T10:08:11;27.40;40.70
33988;DHT22;37428;53.580;-1.666;2022-07-10T10:11:15;27.50;38.90
33988;DHT22;37428;53.580;-1.666;2022-07-10T10:14:21;27.70;39.80
33988;DHT22;37428;53.580;-1.666;2022-07-10T10:17:28;27.60;38.90
33988;DHT22;37428;53.580;-1.666;2022-07-10T10:20:32;27.90;39.50
33988;DHT22;37428;53.580;-1.666;2022-07-10T10:23:42;27.80;39.80
33988;DHT22;37428;53.580;-1.666;2022-07-10T10:26:45;28.10;37.90
33988;DHT22;37428;53.580;-1.666;2022-07-10T10:29:48;28.20;38.00
33988;DHT22;37428;53.580;-1.666;2022-07-10T10:32:51;28.30;38.00
33988;DHT22;37428;53.580;-1.666;2022-07-10T10:35:54;28.30;37.60
33988;DHT22;37428;53.580;-1.666;2022-07-10T10:39:00;28.30;37.30
33988;DHT22;37428;53.580;-1.666;2022-07-10T10:42:03;28.30;37.90
33988;DHT22;37428;53.580;-1.666;2022-07-10T10:45:31;28.50;37.80
33988;DHT22;37428;53.580;-1.666;2022-07-10T10:48:35;28.50;37.20
33988;DHT22;37428;53.580;-1.666;2022-07-10T10:55:13;28.70;38.30
33988;DHT22;37428;53.580;-1.666;2022-07-10T10:58:17;28.60;37.60
33988;DHT22;37428;53.580;-1.666;2022-07-10T11:01:25;28.80;38.30
33988;DHT22;37428;53.580;-1.666;2022-07-10T11:04:28;29.00;37.50
33988;DHT22;37428;53.580;-1.666;2022-07-10T11:10:52;29.00;37.50
33988;DHT22;37428;53.580;-1.666;2022-07-10T11:13:57;28.90;37.70
33988;DHT22;37428;53.580;-1.666;2022-07-10T11:16:59;29.10;38.20
33988;DHT22;37428;53.580;-1.666;2022-07-10T11:20:01;29.40;37.80
33988;DHT22;37428;53.580;-1.666;2022-07-10T11:26:46;29.50;37.10
33988;DHT22;37428;53.580;-1.666;2022-07-10T11:29:57;29.50;36.40
33988;DHT22;37428;53.580;-1.666;2022-07-10T11:33:04;29.50;37.20
33988;DHT22;37428;53.580;-1.666;2022-07-10T11:36:10;29.50;34.90
33988;DHT22;37428;53.580;-1.666;2022-07-10T11:39:14;29.50;34.40
33988;DHT22;37428;53.580;-1.666;2022-07-10T11:42:18;29.50;36.80
33988;DHT22;37428;53.580;-1.666;2022-07-10T11:45:25;29.60;36.30
33988;DHT22;37428;53.580;-1.666;2022-07-10T11:48:27;29.70;36.20
33988;DHT22;37428;53.580;-1.666;2022-07-10T11:51:31;29.80;36.20
33988;DHT22;37428;53.580;-1.666;2022-07-10T11:54:33;29.70;36.20
33988;DHT22;37428;53.580;-1.666;2022-07-10T11:57:39;29.90;35.30
33988;DHT22;37428;53.580;-1.666;2022-07-10T12:00:57;29.80;34.80
33988;DHT22;37428;53.580;-1.666;2022-07-10T12:04:02;30.00;34.70
33988;DHT22;37428;53.580;-1.666;2022-07-10T12:07:04;30.10;35.30
33988;DHT22;37428;53.580;-1.666;2022-07-10T12:10:08;30.30;35.20
33988;DHT22;37428;53.580;-1.666;2022-07-10T12:13:13;30.30;33.70
33988;DHT22;37428;53.580;-1.666;2022-07-10T12:16:16;30.20;33.60
33988;DHT22;37428;53.580;-1.666;2022-07-10T12:19:20;30.20;33.20
33988;DHT22;37428;53.580;-1.666;2022-07-10T12:22:23;30.40;33.90
33988;DHT22;37428;53.580;-1.666;2022-07-10T12:25:25;30.50;35.70
33988;DHT22;37428;53.580;-1.666;2022-07-10T12:28:29;30.60;31.90
33988;DHT22;37428;53.580;-1.666;2022-07-10T12:31:33;30.70;33.20
33988;DHT22;37428;53.580;-1.666;2022-07-10T12:34:36;30.80;34.70
33988;DHT22;37428;53.580;-1.666;2022-07-10T12:37:47;31.00;34.80
33988;DHT22;37428;53.580;-1.666;2022-07-10T12:40:49;31.10;34.40
33988;DHT22;37428;53.580;-1.666;2022-07-10T12:43:54;31.10;33.30
33988;DHT22;37428;53.580;-1.666;2022-07-10T12:47:00;31.10;33.80
33988;DHT22;37428;53.580;-1.666;2022-07-10T12:50:04;31.20;33.90
33988;DHT22;37428;53.580;-1.666;2022-07-10T12:53:10;31.10;33.00
33988;DHT22;37428;53.580;-1.666;2022-07-10T12:56:33;31.10;33.40
33988;DHT22;37428;53.580;-1.666;2022-07-10T12:59:37;31.00;33.00
33988;DHT22;37428;53.580;-1.666;2022-07-10T13:02:39;31.10;33.80
33988;DHT22;37428;53.580;-1.666;2022-07-10T13:05:42;31.20;33.80
33988;DHT22;37428;53.580;-1.666;2022-07-10T13:08:45;31.40;32.80
33988;DHT22;37428;53.580;-1.666;2022-07-10T13:11:47;31.50;33.40
33988;DHT22;37428;53.580;-1.666;2022-07-10T13:14:51;31.50;33.60
33988;DHT22;37428;53.580;-1.666;2022-07-10T13:17:53;31.50;32.90
33988;DHT22;37428;53.580;-1.666;2022-07-10T13:20:56;31.70;33.00
33988;DHT22;37428;53.580;-1.666;2022-07-10T13:24:01;31.80;32.90
33988;DHT22;37428;53.580;-1.666;2022-07-10T13:27:04;32.00;32.20
33988;DHT22;37428;53.580;-1.666;2022-07-10T13:30:09;32.10;32.90
33988;DHT22;37428;53.580;-1.666;2022-07-10T13:33:11;32.20;32.00
33988;DHT22;37428;53.580;-1.666;2022-07-10T13:36:14;32.00;32.50
33988;DHT22;37428;53.580;-1.666;2022-07-10T13:39:17;32.00;31.80
33988;DHT22;37428;53.580;-1.666;2022-07-10T13:42:20;32.10;32.20
33988;DHT22;37428;53.580;-1.666;2022-07-10T13:45:24;32.10;32.00
33988;DHT22;37428;53.580;-1.666;2022-07-10T13:48:30;32.40;31.70
33988;DHT22;37428;53.580;-1.666;2022-07-10T13:51:32;32.60;31.10
33988;DHT22;37428;53.580;-1.666;2022-07-10T13:54:35;32.70;31.50
33988;DHT22;37428;53.580;-1.666;2022-07-10T13:57:39;32.70;30.70
33988;DHT22;37428;53.580;-1.666;2022-07-10T14:00:43;32.70;30.90
33988;DHT22;37428;53.580;-1.666;2022-07-10T14:03:45;32.80;32.00
33988;DHT22;37428;53.580;-1.666;2022-07-10T14:06:48;32.90;31.60
33988;DHT22;37428;53.580;-1.666;2022-07-10T14:09:50;32.90;31.70
33988;DHT22;37428;53.580;-1.666;2022-07-10T14:12:53;33.00;31.10
33988;DHT22;37428;53.580;-1.666;2022-07-10T14:15:56;32.90;31.00
33988;DHT22;37428;53.580;-1.666;2022-07-10T14:19:13;32.90;31.70
33988;DHT22;37428;53.580;-1.666;2022-07-10T14:22:17;32.80;31.10
33988;DHT22;37428;53.580;-1.666;2022-07-10T14:25:25;32.80;31.00
33988;DHT22;37428;53.580;-1.666;2022-07-10T14:28:35;32.80;30.60
33988;DHT22;37428;53.580;-1.666;2022-07-10T14:31:40;33.10;31.10
33988;DHT22;37428;53.580;-1.666;2022-07-10T14:34:48;33.00;31.80
33988;DHT22;37428;53.580;-1.666;2022-07-10T14:37:52;32.90;31.40
33988;DHT22;37428;53.580;-1.666;2022-07-10T14:40:56;33.00;31.30
33988;DHT22;37428;53.580;-1.666;2022-07-10T14:43:58;33.10;30.10
33988;DHT22;37428;53.580;-1.666;2022-07-10T14:47:08;33.10;30.20
33988;DHT22;37428;53.580;-1.666;2022-07-10T14:50:10;33.00;27.90
33988;DHT22;37428;53.580;-1.666;2022-07-10T14:53:19;33.10;29.20
33988;DHT22;37428;53.580;-1.666;2022-07-10T14:56:37;33.10;29.60
33988;DHT22;37428;53.580;-1.666;2022-07-10T14:59:49;33.00;29.10
33988;DHT22;37428;53.580;-1.666;2022-07-10T15:02:54;33.10;30.00
33988;DHT22;37428;53.580;-1.666;2022-07-10T15:06:02;32.90;30.20
33988;DHT22;37428;53.580;-1.666;2022-07-10T15:09:04;32.80;30.50
33988;DHT22;37428;53.580;-1.666;2022-07-10T15:12:25;32.70;29.60
33988;DHT22;37428;53.580;-1.666;2022-07-10T15:15:53;32.90;30.10
33988;DHT22;37428;53.580;-1.666;2022-07-10T15:19:03;32.90;29.10
33988;DHT22;37428;53.580;-1.666;2022-07-10T15:22:07;32.50;29.70
33988;DHT22;37428;53.580;-1.666;2022-07-10T15:25:09;32.40;30.40
33988;DHT22;37428;53.580;-1.666;2022-07-10T15:28:17;32.30;30.40
33988;DHT22;37428;53.580;-1.666;2022-07-10T15:31:19;32.50;30.40
33988;DHT22;37428;53.580;-1.666;2022-07-10T15:34:24;32.60;30.70
33988;DHT22;37428;53.580;-1.666;2022-07-10T15:41:23;32.40;31.00
33988;DHT22;37428;53.580;-1.666;2022-07-10T15:44:50;32.40;30.90
33988;DHT22;37428;53.580;-1.666;2022-07-10T15:48:06;32.10;30.50
33988;DHT22;37428;53.580;-1.666;2022-07-10T15:51:10;32.10;30.40
33988;DHT22;37428;53.580;-1.666;2022-07-10T15:54:28;31.80;30.70
33988;DHT22;37428;53.580;-1.666;2022-07-10T15:57:33;31.90;31.40
33988;DHT22;37428;53.580;-1.666;2022-07-10T16:00:35;31.80;31.80
33988;DHT22;37428;53.580;-1.666;2022-07-10T16:03:41;32.00;31.70
33988;DHT22;37428;53.580;-1.666;2022-07-10T16:07:00;31.80;31.60
33988;DHT22;37428;53.580;-1.666;2022-07-10T16:10:03;31.80;32.40
33988;DHT22;37428;53.580;-1.666;2022-07-10T16:13:06;31.70;32.10
33988;DHT22;37428;53.580;-1.666;2022-07-10T16:16:10;31.60;31.80
33988;DHT22;37428;53.580;-1.666;2022-07-10T16:22:53;31.40;31.40
33988;DHT22;37428;53.580;-1.666;2022-07-10T16:25:57;31.40;32.80
33988;DHT22;37428;53.580;-1.666;2022-07-10T16:29:05;31.20;33.50
33988;DHT22;37428;53.580;-1.666;2022-07-10T16:32:20;31.00;33.60
33988;DHT22;37428;53.580;-1.666;2022-07-10T16:35:22;30.90;33.60
33988;DHT22;37428;53.580;-1.666;2022-07-10T16:38:26;30.90;33.90
33988;DHT22;37428;53.580;-1.666;2022-07-10T16:41:28;30.90;33.70
33988;DHT22;37428;53.580;-1.666;2022-07-10T16:44:30;30.90;33.50
33988;DHT22;37428;53.580;-1.666;2022-07-10T16:47:50;30.70;33.90
33988;DHT22;37428;53.580;-1.666;2022-07-10T16:51:26;30.50;33.60
33988;DHT22;37428;53.580;-1.666;2022-07-10T16:54:35;30.30;34.20
33988;DHT22;37428;53.580;-1.666;2022-07-10T16:57:49;30.30;34.10
33988;DHT22;37428;53.580;-1.666;2022-07-10T17:01:36;30.00;34.30
33988;DHT22;37428;53.580;-1.666;2022-07-10T17:04:40;29.90;34.50
33988;DHT22;37428;53.580;-1.666;2022-07-10T17:07:53;29.80;35.00
33988;DHT22;37428;53.580;-1.666;2022-07-10T17:11:20;29.80;35.70
33988;DHT22;37428;53.580;-1.666;2022-07-10T17:14:23;29.50;35.20
33988;DHT22;37428;53.580;-1.666;2022-07-10T17:19:46;29.60;35.20
33988;DHT22;37428;53.580;-1.666;2022-07-10T17:21:10;29.50;35.40
33988;DHT22;37428;53.580;-1.666;2022-07-10T17:24:31;29.30;34.90
33988;DHT22;37428;53.580;-1.666;2022-07-10T17:27:35;29.30;36.30
33988;DHT22;37428;53.580;-1.666;2022-07-10T17:30:42;28.90;36.20
33988;DHT22;37428;53.580;-1.666;2022-07-10T17:33:46;29.00;36.20
33988;DHT22;37428;53.580;-1.666;2022-07-10T17:36:48;28.90;35.70
33988;DHT22;37428;53.580;-1.666;2022-07-10T17:39:57;28.80;36.00
33988;DHT22;37428;53.580;-1.666;2022-07-10T17:43:06;28.80;36.00
33988;DHT22;37428;53.580;-1.666;2022-07-10T17:46:08;28.60;35.90
33988;DHT22;37428;53.580;-1.666;2022-07-10T17:49:10;28.50;36.00
33988;DHT22;37428;53.580;-1.666;2022-07-10T17:52:14;28.30;37.00
33988;DHT22;37428;53.580;-1.666;2022-07-10T17:55:15;28.40;37.50
33988;DHT22;37428;53.580;-1.666;2022-07-10T17:58:21;28.40;37.40
33988;DHT22;37428;53.580;-1.666;2022-07-10T18:01:31;28.00;37.40
33988;DHT22;37428;53.580;-1.666;2022-07-10T18:04:51;27.80;37.30
33988;DHT22;37428;53.580;-1.666;2022-07-10T18:08:04;27.80;37.70
33988;DHT22;37428;53.580;-1.666;2022-07-10T18:11:09;27.70;37.00
33988;DHT22;37428;53.580;-1.666;2022-07-10T18:14:21;27.70;37.50
33988;DHT22;37428;53.580;-1.666;2022-07-10T18:17:24;27.50;38.20
33988;DHT22;37428;53.580;-1.666;2022-07-10T18:20:25;27.50;38.40
33988;DHT22;37428;53.580;-1.666;2022-07-10T18:23:28;27.40;38.10
33988;DHT22;37428;53.580;-1.666;2022-07-10T18:26:30;27.40;37.60
33988;DHT22;37428;53.580;-1.666;2022-07-10T18:29:37;27.40;38.40
33988;DHT22;37428;53.580;-1.666;2022-07-10T18:32:39;27.40;37.80
33988;DHT22;37428;53.580;-1.666;2022-07-10T18:36:05;27.30;38.10
33988;DHT22;37428;53.580;-1.666;2022-07-10T18:39:15;27.20;38.00
33988;DHT22;37428;53.580;-1.666;2022-07-10T18:42:17;27.10;38.50
33988;DHT22;37428;53.580;-1.666;2022-07-10T18:45:21;27.00;38.40
33988;DHT22;37428;53.580;-1.666;2022-07-10T18:48:25;26.90;38.70
33988;DHT22;37428;53.580;-1.666;2022-07-10T18:51:37;26.80;39.10
33988;DHT22;37428;53.580;-1.666;2022-07-10T18:54:53;26.70;39.10
33988;DHT22;37428;53.580;-1.666;2022-07-10T18:57:57;26.70;39.90
33988;DHT22;37428;53.580;-1.666;2022-07-10T19:01:14;26.70;39.30
33988;DHT22;37428;53.580;-1.666;2022-07-10T19:04:26;26.70;39.30
33988;DHT22;37428;53.580;-1.666;2022-07-10T19:07:40;26.70;38.70
33988;DHT22;37428;53.580;-1.666;2022-07-10T19:10:43;26.60;39.40
33988;DHT22;37428;53.580;-1.666;2022-07-10T19:13:47;26.50;39.40
33988;DHT22;37428;53.580;-1.666;2022-07-10T19:16:54;26.40;39.50
33988;DHT22;37428;53.580;-1.666;2022-07-10T19:19:58;26.30;40.10
33988;DHT22;37428;53.580;-1.666;2022-07-10T19:23:00;26.30;40.20
33988;DHT22;37428;53.580;-1.666;2022-07-10T19:26:04;26.10;40.20
33988;DHT22;37428;53.580;-1.666;2022-07-10T19:29:11;26.20;40.40
33988;DHT22;37428;53.580;-1.666;2022-07-10T19:32:16;26.20;40.90
33988;DHT22;37428;53.580;-1.666;2022-07-10T19:35:18;26.10;41.10
33988;DHT22;37428;53.580;-1.666;2022-07-10T19:38:20;26.10;41.30
33988;DHT22;37428;53.580;-1.666;2022-07-10T19:41:26;26.00;41.40
33988;DHT22;37428;53.580;-1.666;2022-07-10T19:44:28;26.00;41.70
33988;DHT22;37428;53.580;-1.666;2022-07-10T19:47:32;25.90;41.50